createdAt,value
2022-09-28T00:00:17.363Z,97704.50
2022-09-28T00:02:45.149Z,97654.47
2022-09-28T00:05:14.448Z,97756.59
2022-09-28T00:07:42.671Z,97565.34
2022-09-28T00:10:11.024Z,97843.91
2022-09-28T00:12:39.458Z,97691.75
2022-09-28T00:15:08.087Z,97762.84
2022-09-28T00:17:36.486Z,97809.88
2022-09-28T00:20:05.824Z,97841.13
2022-09-28T00:22:34.944Z,97636.47
2022-09-28T00:25:02.704Z,97807.25
2022-09-28T00:27:30.390Z,97799.41
2022-09-28T00:29:58.122Z,97480.75
2022-09-28T00:32:26.625Z,97811.88
2022-09-28T00:34:55.092Z,97564.03
2022-09-28T00:37:22.762Z,97706.16
2022-09-28T00:39:51.877Z,97598.81
2022-09-28T00:42:21.348Z,97702.59
2022-09-28T00:44:49.752Z,97529.59
2022-09-28T00:47:38.275Z,97641.81
2022-09-28T00:50:08.199Z,97791.16
2022-09-28T00:52:39.021Z,97760.69
2022-09-28T00:55:09.879Z,97913.09
2022-09-28T00:57:37.670Z,97640.19
2022-09-28T01:00:06.627Z,97578.28
2022-09-28T01:02:34.397Z,97668.28
2022-09-28T01:05:02.282Z,97520.72
2022-09-28T01:07:30.218Z,97428.53
2022-09-28T01:09:58.088Z,97645.53
2022-09-28T01:12:27.319Z,97564.59
2022-09-28T01:14:55.255Z,97738.59
2022-09-28T01:17:25.376Z,97714.84
2022-09-28T01:20:26.779Z,97531.03
2022-09-28T01:23:19.118Z,97657.31
2022-09-28T01:25:51.866Z,97599.88
2022-09-28T01:28:21.992Z,97481.22
2022-09-28T01:30:55.135Z,97772.41
2022-09-28T01:33:24.279Z,97483.38
2022-09-28T01:35:53.907Z,97654.94
2022-09-28T01:38:23.259Z,97665.06
2022-09-28T01:40:51.079Z,97563.78
2022-09-28T01:43:20.339Z,97781.50
2022-09-28T01:45:50.510Z,97732.81
2022-09-28T01:48:20.500Z,97429.78
2022-09-28T01:50:48.567Z,97612.69
2022-09-28T01:53:18.217Z,97450.78
2022-09-28T01:55:46.703Z,97879.63
2022-09-28T01:58:16.229Z,97647.03
2022-09-28T02:00:45.854Z,97413.69
2022-09-28T02:03:16.917Z,97672.16
2022-09-28T02:05:46.831Z,97414.03
2022-09-28T02:08:15.681Z,97656.22
2022-09-28T02:10:44.925Z,97514.88
2022-09-28T02:13:14.025Z,97436.94
2022-09-28T02:15:43.791Z,97729.22
2022-09-28T02:18:11.690Z,97781.47
2022-09-28T02:20:41.107Z,97808.47
2022-09-28T02:23:09.004Z,97582.41
2022-09-28T02:25:40.171Z,97512.25
2022-09-28T02:28:08.882Z,97711.31
2022-09-28T02:30:37.883Z,97510.31
2022-09-28T02:33:08.912Z,97766.94
2022-09-28T02:35:36.938Z,97842.06
2022-09-28T02:38:06.086Z,97319.47
2022-09-28T02:40:35.648Z,97769.63
2022-09-28T02:43:07.773Z,97623.72
2022-09-28T02:45:42.599Z,97672.56
2022-09-28T02:48:27.194Z,97792.50
2022-09-28T02:51:07.174Z,97489.53
2022-09-28T02:53:46.045Z,97640.78
2022-09-28T02:56:27.307Z,97790.03
2022-09-28T02:58:58.275Z,97781.91
2022-09-28T03:01:29.564Z,97553.06
2022-09-28T03:03:59.207Z,97910.31
2022-09-28T03:06:28.485Z,97645.44
2022-09-28T03:09:00.402Z,97588.06
2022-09-28T03:11:29.972Z,97674.09
2022-09-28T03:13:57.951Z,97530.44
2022-09-28T03:16:27.453Z,97335.59
2022-09-28T03:18:55.314Z,97704.44
2022-09-28T03:21:23.096Z,97676.41
2022-09-28T03:23:50.816Z,97858.72
2022-09-28T03:26:20.158Z,97455.66
2022-09-28T03:28:48.017Z,97833.44
2022-09-28T03:31:15.890Z,97674.03
2022-09-28T03:33:46.933Z,97827.19
2022-09-28T03:36:15.159Z,97743.41
2022-09-28T03:38:43.010Z,97912.91
2022-09-28T03:41:10.966Z,97630.50
2022-09-28T03:43:40.230Z,97506.44
2022-09-28T03:46:10.289Z,97369.38
2022-09-28T03:48:38.505Z,97615.47
2022-09-28T03:51:09.291Z,97417.59
2022-09-28T03:53:43.359Z,97663.50
2022-09-28T03:56:13.369Z,97559.94
2022-09-28T03:58:44.622Z,97701.91
2022-09-28T04:01:17.828Z,97668.13
2022-09-28T04:03:56.028Z,97701.94
2022-09-28T04:06:24.999Z,97369.91
2022-09-28T04:08:54.114Z,97692.41
2022-09-28T04:11:21.922Z,97715.50
2022-09-28T04:13:51.359Z,97695.78
2022-09-28T04:16:25.346Z,97738.75
2022-09-28T04:18:54.275Z,97512.97
2022-09-28T04:21:22.480Z,97652.78
2022-09-28T04:23:50.285Z,97834.63
2022-09-28T04:26:20.546Z,97722.38
2022-09-28T04:29:11.051Z,97766.91
2022-09-28T04:31:40.613Z,97612.44
2022-09-28T04:34:08.507Z,97495.34
2022-09-28T04:36:36.508Z,97432.28
2022-09-28T04:39:05.043Z,97499.75
2022-09-28T04:41:41.741Z,97592.47
2022-09-28T04:46:45.988Z,97807.19
2022-09-28T04:49:13.795Z,97799.25
2022-09-28T04:51:41.471Z,97794.84
2022-09-28T04:54:09.196Z,97800.97
2022-09-28T04:56:36.927Z,97793.09
2022-09-28T04:59:06.134Z,97759.06
2022-09-28T05:01:34.004Z,97796.47
2022-09-28T05:04:03.547Z,97798.28
2022-09-28T05:06:32.220Z,97770.06
2022-09-28T05:08:59.885Z,97797.25
2022-09-28T05:11:27.656Z,97798.13
2022-09-28T05:13:55.530Z,97802.38
2022-09-28T05:16:25.288Z,97791.88
2022-09-28T05:18:56.260Z,97799.66
2022-09-28T05:21:26.441Z,97798.69
2022-09-28T05:23:56.147Z,97794.31
2022-09-28T05:26:23.977Z,97793.59
2022-09-28T05:28:51.808Z,97796.84
2022-09-28T05:31:20.721Z,97804.78
2022-09-28T05:33:48.735Z,97789.38
2022-09-28T05:36:16.298Z,97802.94
2022-09-28T05:38:45.349Z,97796.97
2022-09-28T05:41:13.079Z,97791.47
2022-09-28T05:43:41.049Z,97776.88
2022-09-28T05:46:08.981Z,97796.56
2022-09-28T05:48:36.797Z,97793.78
2022-09-28T05:51:04.647Z,97785.06
2022-09-28T05:53:32.211Z,97790.38
2022-09-28T05:56:01.724Z,97769.06
2022-09-28T05:58:29.475Z,97791.97
2022-09-28T06:00:57.601Z,97794.59
2022-09-28T06:03:25.555Z,97791.03
2022-09-28T06:05:53.271Z,97798.03
2022-09-28T06:08:21.149Z,97792.63
2022-09-28T06:10:48.949Z,97790.09
2022-09-28T06:13:17.860Z,97792.41
2022-09-28T06:15:46.205Z,97794.00
2022-09-28T06:18:15.141Z,97777.97
2022-09-28T06:20:43.978Z,97804.34
2022-09-28T06:23:11.797Z,97806.03
2022-09-28T06:25:39.465Z,97807.66
2022-09-28T06:28:10.353Z,97810.22
2022-09-28T06:30:39.801Z,97812.84
2022-09-28T06:33:08.242Z,97812.03
2022-09-28T06:35:36.529Z,97824.94
2022-09-28T06:38:08.108Z,97805.47
2022-09-28T06:40:39.437Z,97805.97
2022-09-28T06:43:10.260Z,97830.91
2022-09-28T06:45:39.735Z,97825.75
2022-09-28T06:48:07.901Z,97838.78
2022-09-28T06:50:37.441Z,97838.78
2022-09-28T06:53:05.875Z,97613.41
2022-09-28T06:55:33.777Z,97805.53
2022-09-28T06:58:02.707Z,97841.19
2022-09-28T07:00:31.123Z,97841.06
2022-09-28T07:03:01.374Z,97850.41
2022-09-28T07:05:29.612Z,97848.28
2022-09-28T07:07:57.307Z,97848.28
2022-09-28T07:10:25.235Z,97843.31
2022-09-28T07:12:52.927Z,97857.84
2022-09-28T07:15:20.590Z,97858.78
2022-09-28T07:17:59.875Z,97856.94
2022-09-28T07:20:31.425Z,97856.78
2022-09-28T07:23:15.633Z,97868.88
2022-09-28T07:25:49.543Z,97866.25
2022-09-28T07:28:17.511Z,97871.56
2022-09-28T07:30:45.411Z,97875.03
2022-09-28T07:33:14.606Z,97876.97
2022-09-28T07:35:50.727Z,97878.00
2022-09-28T07:38:18.426Z,97892.25
2022-09-28T07:41:07.858Z,97890.41
2022-09-28T07:43:35.992Z,97892.97
2022-09-28T07:46:09.262Z,97889.56
2022-09-28T07:48:38.078Z,97892.63
2022-09-28T07:51:08.016Z,97842.81
2022-09-28T07:53:36.086Z,97892.50
2022-09-28T07:56:08.573Z,97902.72
2022-09-28T07:58:36.695Z,97910.16
2022-09-28T08:01:05.921Z,97918.69
2022-09-28T08:03:33.751Z,97905.38
2022-09-28T08:06:01.988Z,97913.34
2022-09-28T08:08:31.587Z,97916.06
2022-09-28T08:10:59.375Z,97893.16
2022-09-28T08:13:27.412Z,97915.25
2022-09-28T08:15:55.574Z,97925.00
2022-09-28T08:18:23.842Z,97922.38
2022-09-28T08:21:10.676Z,97925.88
2022-09-28T08:23:39.988Z,97926.00
2022-09-28T08:26:12.086Z,97927.03
2022-09-28T08:28:43.115Z,97924.38
2022-09-28T08:31:12.025Z,97923.47
2022-09-28T08:33:41.196Z,97930.81
2022-09-28T08:36:10.646Z,97943.72
2022-09-28T08:38:39.613Z,97918.69
2022-09-28T08:41:12.912Z,97931.81
2022-09-28T08:43:53.039Z,97945.22
2022-09-28T08:46:25.031Z,97929.44
2022-09-28T08:49:20.741Z,97951.16
2022-09-28T08:51:46.052Z,97950.25
2022-09-28T08:54:30.059Z,97938.44
2022-09-28T08:57:00.213Z,97960.13
2022-09-28T08:59:38.227Z,97953.03
2022-09-28T09:02:06.007Z,97957.44
2022-09-28T09:04:33.866Z,97963.31
2022-09-28T09:07:13.551Z,97965.75
2022-09-28T09:09:49.169Z,97968.28
2022-09-28T09:12:20.483Z,97957.53
2022-09-28T09:15:13.024Z,97970.03
2022-09-28T09:17:45.605Z,97956.22
2022-09-28T09:20:26.251Z,97975.97
2022-09-28T09:22:59.740Z,97976.16
2022-09-28T09:25:43.405Z,97949.91
2022-09-28T09:28:53.108Z,97974.84
2022-09-28T09:31:29.916Z,97977.81
2022-09-28T09:34:20.069Z,97970.78
2022-09-28T09:36:55.923Z,97977.19
2022-09-28T09:39:30.888Z,97977.25
2022-09-28T09:42:06.226Z,97981.53
2022-09-28T09:44:48.702Z,97985.16
2022-09-28T09:47:18.293Z,97943.25
2022-09-28T09:49:47.119Z,97972.97
2022-09-28T09:52:19.133Z,98014.81
2022-09-28T09:54:48.769Z,97988.78
2022-09-28T09:57:20.184Z,97989.38
2022-09-28T09:59:48.458Z,97974.66
2022-09-28T10:02:24.172Z,97992.06
2022-09-28T10:04:53.190Z,97934.13
2022-09-28T10:07:23.673Z,97971.69
2022-09-28T10:09:51.793Z,97999.09
2022-09-28T10:12:21.647Z,97995.16
2022-09-28T10:14:49.544Z,98001.53
2022-09-28T10:17:18.340Z,98012.13
2022-09-28T10:19:45.928Z,98001.00
2022-09-28T10:22:16.097Z,98010.75
2022-09-28T10:24:46.203Z,97984.06
2022-09-28T10:27:15.119Z,98004.41
2022-09-28T10:29:50.641Z,98005.53
2022-09-28T10:32:23.770Z,98004.50
2022-09-28T10:34:52.120Z,98011.50
2022-09-28T10:37:19.860Z,98015.91
2022-09-28T10:39:49.752Z,98018.59
2022-09-28T10:42:20.417Z,98012.50
2022-09-28T10:47:25.396Z,98012.16
2022-09-28T10:49:53.421Z,98015.94
2022-09-28T10:52:46.204Z,98019.63
2022-09-28T10:55:30.622Z,98022.34
2022-09-28T10:57:58.212Z,98021.03
2022-09-28T11:00:38.167Z,98018.19
2022-09-28T11:03:07.155Z,98010.47
2022-09-28T11:05:35.884Z,98019.72
2022-09-28T11:08:05.905Z,98020.84
2022-09-28T11:10:33.649Z,98022.00
2022-09-28T11:13:02.238Z,98022.56
2022-09-28T11:15:30.906Z,98019.44
2022-09-28T11:17:58.580Z,98015.66
2022-09-28T11:20:35.810Z,98017.91
2022-09-28T11:23:18.526Z,98002.72
2022-09-28T11:25:51.410Z,98020.53
2022-09-28T11:28:23.733Z,98016.69
2022-09-28T11:30:52.386Z,98007.91
2022-09-28T11:33:20.846Z,98004.03
2022-09-28T11:35:51.483Z,98023.72
2022-09-28T11:38:26.355Z,98003.44
2022-09-28T11:41:00.767Z,98031.78
2022-09-28T11:43:40.822Z,98027.88
2022-09-28T11:46:10.451Z,98028.81
2022-09-28T11:48:41.579Z,98035.56
2022-09-28T11:51:13.122Z,97984.00
2022-09-28T11:53:41.295Z,98013.97
2022-09-28T11:56:13.518Z,97971.94
2022-09-28T11:58:41.889Z,98025.28
2022-09-28T12:01:18.581Z,98025.28
2022-09-28T12:03:49.081Z,98026.41
2022-09-28T12:06:19.699Z,98058.38
2022-09-28T12:08:48.390Z,98017.63
2022-09-28T12:11:18.141Z,98025.91
2022-09-28T12:13:47.819Z,98027.25
2022-09-28T12:16:45.286Z,98024.84
2022-09-28T12:19:19.796Z,98012.91
2022-09-28T12:21:51.213Z,98035.47
2022-09-28T12:24:21.024Z,98028.13
2022-09-28T12:26:51.076Z,97980.75
2022-09-28T12:29:21.702Z,97997.84
2022-09-28T12:31:54.987Z,98029.44
2022-09-28T12:34:22.902Z,98024.72
2022-09-28T12:36:59.992Z,98025.56
2022-09-28T12:39:57.093Z,98013.31
2022-09-28T12:42:44.213Z,98014.06
2022-09-28T12:45:59.738Z,98014.81
2022-09-28T12:48:36.143Z,98015.28
2022-09-28T12:51:09.165Z,98013.75
2022-09-28T12:54:00.125Z,98015.28
2022-09-28T12:56:30.755Z,97995.50
2022-09-28T12:59:05.192Z,98019.16
2022-09-28T13:01:40.685Z,97983.38
2022-09-28T13:04:19.080Z,98017.00
2022-09-28T13:06:54.506Z,98013.78
2022-09-28T13:09:24.165Z,98014.16
2022-09-28T13:11:56.804Z,98012.19
2022-09-28T13:14:51.303Z,98005.81
2022-09-28T13:17:21.305Z,98009.81
2022-09-28T13:19:51.816Z,98016.41
2022-09-28T13:22:27.982Z,98020.47
2022-09-28T13:24:57.701Z,98027.25
2022-09-28T13:27:29.522Z,98025.66
2022-09-28T13:29:58.799Z,98015.56
2022-09-28T13:32:29.874Z,98014.69
2022-09-28T13:34:57.541Z,98015.19
2022-09-28T13:37:25.984Z,98007.69
2022-09-28T13:39:55.089Z,98018.25
2022-09-28T13:42:51.858Z,98015.69
2022-09-28T13:45:51.650Z,98018.81
2022-09-28T13:48:20.542Z,98018.66
2022-09-28T13:51:10.853Z,98011.81
2022-09-28T13:53:48.423Z,98008.31
2022-09-28T13:56:24.526Z,98013.50
2022-09-28T13:58:54.712Z,98010.94
2022-09-28T14:01:32.618Z,98007.97
2022-09-28T14:04:12.575Z,98017.63
2022-09-28T14:06:49.437Z,98010.63
2022-09-28T14:09:28.086Z,97993.28
2022-09-28T14:11:58.769Z,98025.63
2022-09-28T14:14:46.503Z,98019.22
2022-09-28T14:17:50.056Z,98017.88
2022-09-28T14:20:18.805Z,98011.78
2022-09-28T14:22:55.173Z,97999.94
2022-09-28T14:25:24.321Z,98016.69
2022-09-28T14:28:13.819Z,98011.59
2022-09-28T14:30:50.570Z,98018.88
2022-09-28T14:33:24.549Z,98022.66
2022-09-28T14:35:56.289Z,98015.66
2022-09-28T14:38:43.480Z,98018.59
2022-09-28T14:41:17.423Z,98026.50
2022-09-28T14:44:02.615Z,98012.81
2022-09-28T14:46:33.487Z,98025.00
2022-09-28T14:49:03.445Z,97911.41
2022-09-28T14:52:03.141Z,98033.31
2022-09-28T14:54:39.205Z,98026.22
2022-09-28T14:57:09.258Z,98023.03
2022-09-28T14:59:42.777Z,98026.22
2022-09-28T15:02:17.297Z,98027.06
2022-09-28T15:04:46.656Z,98041.25
2022-09-28T15:07:20.110Z,98056.59
2022-09-28T15:09:49.609Z,98049.41
2022-09-28T15:12:17.996Z,98021.03
2022-09-28T15:14:48.610Z,98045.09
2022-09-28T15:17:21.721Z,98054.88
2022-09-28T15:19:58.257Z,98035.69
2022-09-28T15:22:26.103Z,98049.88
2022-09-28T15:25:00.007Z,98030.94
2022-09-28T15:27:35.905Z,98060.00
2022-09-28T15:30:18.217Z,98083.44
2022-09-28T15:32:47.397Z,98102.34
2022-09-28T15:35:20.422Z,98095.88
2022-09-28T15:37:50.123Z,98105.19
2022-09-28T15:40:26.635Z,98100.06
2022-09-28T15:42:59.085Z,98104.25
2022-09-28T15:45:28.646Z,98096.13
2022-09-28T15:48:14.683Z,98105.69
2022-09-28T15:50:45.738Z,98092.41
2022-09-28T15:53:17.310Z,98094.16
2022-09-28T15:55:45.038Z,98098.53
2022-09-28T15:58:17.104Z,98101.53
2022-09-28T16:00:45.076Z,98100.03
2022-09-28T16:03:24.684Z,98117.91
2022-09-28T16:05:53.150Z,98080.28
2022-09-28T16:08:25.518Z,98102.53
2022-09-28T16:10:55.825Z,98092.84
2022-09-28T16:13:24.307Z,98097.25
2022-09-28T16:15:57.972Z,98106.06
2022-09-28T16:18:27.609Z,98100.63
2022-09-28T16:20:58.219Z,98110.75
2022-09-28T16:23:27.322Z,98101.09
2022-09-28T16:25:57.172Z,98115.97
2022-09-28T16:28:48.714Z,98115.88
2022-09-28T16:31:33.590Z,98106.13
2022-09-28T16:34:11.748Z,98122.69
2022-09-28T16:36:45.441Z,98127.03
2022-09-28T16:39:13.706Z,98139.19
2022-09-28T16:41:41.600Z,98143.41
2022-09-28T16:44:14.981Z,98132.19
2022-09-28T16:46:42.782Z,98136.34
2022-09-28T16:49:18.696Z,98140.03
2022-09-28T16:51:47.333Z,98137.44
2022-09-28T16:54:33.336Z,98130.69
2022-09-28T16:57:01.881Z,98140.22
2022-09-28T16:59:30.124Z,98136.75
2022-09-28T17:01:58.473Z,98135.13
2022-09-28T17:04:27.711Z,98139.50
2022-09-28T17:06:55.837Z,98144.00
2022-09-28T17:09:23.492Z,98144.00
2022-09-28T17:11:56.128Z,98145.75
2022-09-28T17:14:24.581Z,98139.16
2022-09-28T17:17:12.533Z,98147.53
2022-09-28T17:19:43.084Z,98139.94
2022-09-28T17:22:11.082Z,98157.78
2022-09-28T17:27:07.816Z,97883.47
2022-09-28T17:29:35.677Z,97987.00
2022-09-28T17:32:05.039Z,97760.47
2022-09-28T17:34:32.860Z,97852.75
2022-09-28T17:37:06.160Z,97840.56
2022-09-28T17:39:35.024Z,97896.94
2022-09-28T17:42:03.062Z,97840.06
2022-09-28T17:44:30.947Z,97826.72
2022-09-28T17:46:59.305Z,97878.22
2022-09-28T17:49:27.239Z,98051.38
2022-09-28T17:51:55.497Z,98024.91
2022-09-28T17:54:29.044Z,98048.81
2022-09-28T17:56:57.046Z,97914.78
2022-09-28T17:59:26.733Z,98090.53
2022-09-28T18:01:58.405Z,97826.63
2022-09-28T18:04:50.869Z,97881.00
2022-09-28T18:07:16.549Z,97801.09
2022-09-28T18:09:45.936Z,97847.72
2022-09-28T18:12:13.955Z,97934.47
2022-09-28T18:14:42.224Z,98066.16
2022-09-28T18:17:10.681Z,97984.84
2022-09-28T18:19:38.599Z,97864.00
2022-09-28T18:22:06.480Z,97928.84
2022-09-28T18:24:34.297Z,98242.63
2022-09-28T18:27:03.641Z,98096.50
2022-09-28T18:29:33.460Z,98007.91
2022-09-28T18:32:01.694Z,97961.94
2022-09-28T18:34:29.522Z,98055.16
2022-09-28T18:36:57.604Z,97913.59
2022-09-28T18:39:26.550Z,98054.66
2022-09-28T18:41:55.759Z,98057.00
2022-09-28T18:44:25.247Z,98020.63
2022-09-28T18:46:53.627Z,98041.69
2022-09-28T18:49:21.563Z,98130.88
2022-09-28T18:51:49.418Z,97911.88
2022-09-28T18:54:17.392Z,98168.94
2022-09-28T18:56:47.910Z,97821.13
2022-09-28T18:59:18.053Z,98085.81
2022-09-28T19:01:48.696Z,98184.53
2022-09-28T19:04:24.010Z,98200.03
2022-09-28T19:06:54.530Z,98055.88
2022-09-28T19:09:24.837Z,98096.72
2022-09-28T19:12:31.961Z,98120.13
2022-09-28T19:21:29.018Z,98076.44
2022-09-28T19:24:04.186Z,97886.78
2022-09-28T19:29:17.765Z,98193.88
2022-09-28T19:31:46.016Z,98193.19
2022-09-28T19:34:15.419Z,98211.28
2022-09-28T19:36:43.519Z,98182.28
2022-09-28T19:39:14.151Z,98203.00
2022-09-28T19:41:44.403Z,98192.78
2022-09-28T19:44:15.747Z,98208.78
2022-09-28T19:46:43.811Z,98220.97
2022-09-28T19:49:12.506Z,98213.22
2022-09-28T19:52:01.569Z,98204.97
2022-09-28T19:54:36.323Z,98207.50
2022-09-28T19:57:07.457Z,98217.81
2022-09-28T19:59:38.948Z,98111.47
2022-09-28T20:02:06.857Z,98229.28
2022-09-28T20:04:34.637Z,98215.50
2022-09-28T20:07:03.654Z,98230.25
2022-09-28T20:09:31.579Z,98192.06
2022-09-28T20:11:59.231Z,98229.44
2022-09-28T20:14:32.890Z,98229.44
2022-09-28T20:17:02.795Z,98168.06
2022-09-28T20:19:30.680Z,98235.63
2022-09-28T20:21:59.492Z,98186.25
2022-09-28T20:24:29.301Z,98231.41
2022-09-28T20:26:57.838Z,98243.78
2022-09-28T20:29:26.652Z,98161.50
2022-09-28T20:31:54.894Z,98185.66
2022-09-28T20:34:26.390Z,98153.50
2022-09-28T20:36:54.136Z,98193.63
2022-09-28T20:39:21.935Z,98220.13
2022-09-28T20:41:57.755Z,98234.22
2022-09-28T20:44:25.523Z,98241.81
2022-09-28T20:46:53.432Z,98248.84
2022-09-28T20:49:21.649Z,98199.22
2022-09-28T20:51:51.123Z,98237.69
2022-09-28T20:54:18.954Z,98217.28
2022-09-28T20:56:48.170Z,98220.81
2022-09-28T20:59:17.259Z,98238.97
2022-09-28T21:01:44.967Z,98246.94
2022-09-28T21:04:12.786Z,98239.34
2022-09-28T21:06:44.002Z,98243.88
2022-09-28T21:09:12.099Z,98259.09
2022-09-28T21:11:40.202Z,98247.53
2022-09-28T21:14:08.595Z,98256.25
2022-09-28T21:16:37.768Z,98251.13
2022-09-28T21:19:05.606Z,98251.03
2022-09-28T21:21:35.335Z,98258.00
2022-09-28T21:24:03.141Z,98247.47
2022-09-28T21:26:31.137Z,98247.41
2022-09-28T21:28:59.327Z,98254.31
2022-09-28T21:31:29.386Z,98249.88
2022-09-28T21:33:58.626Z,98249.91
2022-09-28T21:36:26.299Z,98248.94
2022-09-28T21:38:54.998Z,98249.81
2022-09-28T21:41:22.624Z,98251.59
2022-09-28T21:43:50.208Z,98253.56
2022-09-28T21:46:20.114Z,98248.31
2022-09-28T21:48:51.356Z,98247.47
2022-09-28T21:51:20.398Z,98255.41
2022-09-28T21:53:49.058Z,98245.16
2022-09-28T21:56:16.780Z,98250.38
2022-09-28T21:58:44.373Z,98253.16
2022-09-28T22:01:14.482Z,98252.34
2022-09-28T22:03:43.906Z,98261.91
2022-09-28T22:06:11.979Z,98229.38
2022-09-28T22:08:41.059Z,98262.03
2022-09-28T22:11:09.779Z,98261.25
2022-09-28T22:13:39.901Z,98220.13
2022-09-28T22:16:08.209Z,98266.50
2022-09-28T22:18:35.878Z,98265.69
2022-09-28T22:21:04.234Z,98250.28
2022-09-28T22:23:31.868Z,98267.44
2022-09-28T22:26:01.534Z,98262.31
2022-09-28T22:28:30.119Z,98204.94
2022-09-28T22:30:58.129Z,98274.50
2022-09-28T22:33:25.969Z,98262.44
2022-09-28T22:35:53.578Z,98272.91
2022-09-28T22:38:21.480Z,98279.84
2022-09-28T22:40:49.972Z,98243.66
2022-09-28T22:43:19.807Z,98272.06
2022-09-28T22:45:47.597Z,98265.13
2022-09-28T22:48:15.296Z,98271.25
2022-09-28T22:50:49.673Z,98263.75
2022-09-28T22:53:17.289Z,98259.19
2022-09-28T22:55:45.091Z,98270.50
2022-09-28T22:58:15.653Z,98270.56
2022-09-28T23:00:45.637Z,98278.50
2022-09-28T23:03:13.449Z,98268.13
2022-09-28T23:05:41.186Z,98272.56
2022-09-28T23:08:08.754Z,98272.59
2022-09-28T23:10:36.388Z,98265.69
2022-09-28T23:13:04.001Z,98259.78
2022-09-28T23:15:32.405Z,98267.47
2022-09-28T23:18:01.334Z,98257.97
2022-09-28T23:20:29.018Z,98266.59
2022-09-28T23:22:56.564Z,98266.59
2022-09-28T23:27:51.939Z,98270.84
2022-09-28T23:30:21.531Z,98272.56
2022-09-28T23:32:49.622Z,98272.41
2022-09-28T23:35:18.683Z,98261.19
2022-09-28T23:37:50.544Z,98269.81
2022-09-28T23:40:18.343Z,98273.34
2022-09-28T23:42:46.095Z,98272.50
2022-09-28T23:45:13.845Z,98269.19
2022-09-28T23:47:41.474Z,98269.34
2022-09-28T23:50:10.025Z,98268.44
2022-09-28T23:52:39.017Z,98264.91
2022-09-28T23:55:07.530Z,98245.31
2022-09-28T23:57:35.208Z,98238.25
